Terminal Aerodrome Forecast
Issued by NWS Charleston, WV

Current Version | Previous Version | Graphics & Text | Print | Product List | Glossary On
Versions: 1 2 3 4 5 6 7 8 9 10 11 12 13 14 15 16 17 18 19 20 21 22 23 24 25 26 27
000
FTUS41 KRLX 190500
TAFBKW
TAF
KBKW 190539Z 1906/2006 00000KT P6SM BKN050
     FM190900 00000KT P6SM BKN025
     FM191100 00000KT 6SM -DZ BR BKN015
     FM191400 13005KT P6SM -DZ BKN010
     FM191800 13008KT P6SM BKN025
     FM192100 12009KT P6SM BKN015
     FM200000 13006KT P6SM SCT015
     FM200300 14010G15KT P6SM SCT015=

USA.gov is the U.S. government's official web portal to all federal, state and local government web resources and services.